Time;durP1;ratioP1;P1;durP2;ratioP2;P2;SDS_P1;SDS_P2;PMS_P1;PMS_P2;Temp;Humidity;BMP_temperature;BMP_pressure;BME280_temperature;BME280_humidity;BME280_pressure;Samples;Min_cycle;Max_cycle;Signal;HPM_P1;HPM_P2
2023/08/17 00:02:13;;;;;;;4.40;2.70;;;19.80;99.90;;;;;;5011973;28;20060;-46
2023/08/17 00:04:39;;;;;;;4.70;2.45;;;19.70;99.90;;;;;;5011051;28;20025;-47
2023/08/17 00:07:05;;;;;;;4.15;2.50;;;19.70;99.90;;;;;;5011808;28;20052;-45
2023/08/17 00:09:31;;;;;;;5.20;2.72;;;19.70;99.90;;;;;;5011854;28;20030;-45
2023/08/17 00:11:57;;;;;;;4.63;2.80;;;19.80;99.90;;;;;;5011663;28;20397;-46
2023/08/17 00:14:23;;;;;;;3.70;2.78;;;19.80;99.90;;;;;;5011543;28;20428;-46
2023/08/17 00:16:50;;;;;;;5.00;2.80;;;19.70;99.90;;;;;;5011462;28;20026;-46
2023/08/17 00:19:16;;;;;;;4.82;2.28;;;19.70;99.90;;;;;;5011733;28;20029;-46
2023/08/17 00:21:41;;;;;;;9.82;2.95;;;19.70;99.90;;;;;;4994175;28;20452;-46
2023/08/17 00:24:07;;;;;;;6.90;3.00;;;19.80;99.90;;;;;;4993800;28;20018;-46
2023/08/17 00:26:32;;;;;;;7.15;3.50;;;19.70;99.90;;;;;;5011399;28;20037;-45
2023/08/17 00:28:58;;;;;;;6.97;2.88;;;19.70;99.90;;;;;;5011442;28;20029;-45
2023/08/17 00:31:24;;;;;;;8.15;3.10;;;19.80;99.90;;;;;;5011366;28;20434;-46
2023/08/17 00:33:49;;;;;;;3.20;2.42;;;19.80;99.90;;;;;;5011097;28;20030;-45
2023/08/17 00:36:15;;;;;;;11.98;3.53;;;19.80;99.90;;;;;;5011257;28;20026;-46
2023/08/17 00:38:40;;;;;;;4.55;2.67;;;19.70;99.90;;;;;;5011298;28;20033;-46
2023/08/17 00:41:06;;;;;;;6.97;3.10;;;19.70;99.90;;;;;;5011281;28;20030;-45
2023/08/17 00:43:31;;;;;;;4.82;3.13;;;19.70;99.90;;;;;;5011199;28;20405;-45
2023/08/17 00:45:57;;;;;;;3.65;3.00;;;19.70;99.90;;;;;;5010811;28;20022;-45
2023/08/17 00:48:24;;;;;;;7.13;3.08;;;19.80;99.90;;;;;;5011246;28;20370;-46
2023/08/17 00:50:52;;;;;;;7.35;3.20;;;19.80;99.90;;;;;;5011526;28;20096;-45
2023/08/17 00:53:18;;;;;;;3.92;3.00;;;19.70;99.90;;;;;;5011242;28;20080;-45
2023/08/17 00:55:44;;;;;;;7.97;3.40;;;19.80;99.90;;;;;;5010448;28;20030;-47
2023/08/17 00:58:09;;;;;;;6.95;3.13;;;19.80;99.90;;;;;;5011058;28;20017;-49
2023/08/17 01:00:35;;;;;;;5.57;3.28;;;19.80;99.90;;;;;;5010980;28;20091;-47
2023/08/17 01:03:01;;;;;;;14.02;4.30;;;19.80;99.90;;;;;;4993121;28;20443;-47
2023/08/17 01:05:26;;;;;;;8.63;3.25;;;19.70;99.90;;;;;;5010554;28;20038;-45
2023/08/17 01:07:52;;;;;;;7.50;3.67;;;19.70;99.90;;;;;;5010779;28;20109;-49
2023/08/17 01:10:18;;;;;;;10.15;3.50;;;19.70;99.90;;;;;;5011067;28;20109;-46
2023/08/17 01:13:09;;;;;;;7.25;3.97;;;19.70;99.90;;;;;;5010665;28;20567;-45
2023/08/17 01:15:38;;;;;;;8.57;4.38;;;19.50;99.90;;;;;;5009395;28;20113;-45
2023/08/17 01:18:12;;;;;;;12.88;5.15;;;19.40;99.90;;;;;;5002840;28;20018;-46
2023/08/17 01:20:37;;;;;;;8.18;4.78;;;19.30;99.90;;;;;;5010718;28;20432;-46
2023/08/17 01:23:06;;;;;;;13.27;5.10;;;19.20;99.90;;;;;;5010977;28;20026;-45
2023/08/17 01:25:36;;;;;;;10.02;5.13;;;19.20;99.90;;;;;;5010485;28;20308;-46
2023/08/17 01:28:03;;;;;;;7.20;4.23;;;19.10;99.90;;;;;;5010757;28;20021;-46
2023/08/17 01:30:33;;;;;;;8.20;5.40;;;19.00;99.90;;;;;;4993236;28;20608;-45
2023/08/17 01:33:09;;;;;;;9.48;5.78;;;19.00;99.90;;;;;;5010367;28;20057;-45
2023/08/17 01:35:43;;;;;;;7.97;4.70;;;18.90;99.90;;;;;;5010121;28;20458;-45
2023/08/17 01:38:14;;;;;;;10.93;5.68;;;18.80;99.90;;;;;;5010900;28;20108;-45
2023/08/17 01:40:41;;;;;;;6.60;5.43;;;18.70;99.90;;;;;;5010441;28;20028;-45
2023/08/17 01:43:07;;;;;;;12.48;6.32;;;18.70;99.90;;;;;;5010359;28;20026;-47
2023/08/17 01:45:33;;;;;;;7.28;6.25;;;18.70;99.90;;;;;;5010068;28;20030;-45
2023/08/17 01:47:59;;;;;;;9.48;6.22;;;18.60;99.90;;;;;;5010484;28;20117;-45
2023/08/17 01:50:24;;;;;;;7.50;6.15;;;18.60;99.90;;;;;;5010329;28;20022;-44
2023/08/17 01:52:53;;;;;;;10.50;7.07;;;18.50;99.90;;;;;;5010198;28;20382;-47
2023/08/17 01:55:22;;;;;;;8.98;7.05;;;18.50;99.90;;;;;;5009821;28;20548;-44
2023/08/17 01:57:48;;;;;;;8.88;6.82;;;18.50;99.90;;;;;;5010286;28;20033;-45
2023/08/17 02:00:14;;;;;;;8.73;7.05;;;18.50;99.90;;;;;;5010297;28;20048;-44
2023/08/17 02:02:39;;;;;;;12.52;6.70;;;18.50;99.90;;;;;;5010123;28;20057;-44
2023/08/17 02:05:05;;;;;;;10.15;6.82;;;18.50;99.90;;;;;;5009949;28;20055;-44
2023/08/17 02:07:30;;;;;;;11.32;8.13;;;18.50;99.90;;;;;;5010169;28;20030;-44
2023/08/17 02:09:57;;;;;;;10.88;7.75;;;18.50;99.90;;;;;;5010077;28;20056;-44
2023/08/17 02:12:22;;;;;;;13.75;9.15;;;18.50;99.90;;;;;;5010215;28;20144;-45
2023/08/17 02:14:48;;;;;;;17.33;8.63;;;18.50;99.90;;;;;;5009199;28;20127;-45
2023/08/17 02:17:16;;;;;;;13.13;9.23;;;18.50;99.90;;;;;;5010197;28;20022;-45
2023/08/17 02:19:42;;;;;;;14.88;9.10;;;18.40;99.90;;;;;;5010130;28;20022;-45
2023/08/17 02:22:07;;;;;;;19.40;11.52;;;18.40;99.90;;;;;;5009992;28;20026;-44
2023/08/17 02:24:33;;;;;;;13.75;8.98;;;18.40;99.90;;;;;;4992467;28;20024;-46
2023/08/17 02:26:59;;;;;;;14.48;9.88;;;18.40;99.90;;;;;;5011768;28;20022;-45
2023/08/17 02:29:24;;;;;;;12.48;8.38;;;18.40;99.90;;;;;;5014017;28;20069;-45
2023/08/17 02:31:50;;;;;;;18.80;11.13;;;18.40;99.90;;;;;;4996232;28;20061;-46
2023/08/17 02:34:15;;;;;;;18.95;12.27;;;18.40;99.90;;;;;;5013866;28;20025;-47
2023/08/17 02:36:41;;;;;;;24.05;11.65;;;18.30;99.90;;;;;;5013266;28;20026;-47
2023/08/17 02:39:06;;;;;;;15.98;12.10;;;18.20;99.90;;;;;;5014017;28;20113;-46
2023/08/17 02:41:32;;;;;;;15.13;10.57;;;18.20;99.90;;;;;;5013668;28;20528;-46
2023/08/17 02:43:58;;;;;;;11.98;10.13;;;18.20;99.90;;;;;;5010285;28;20045;-48
2023/08/17 02:46:23;;;;;;;11.60;10.15;;;18.20;99.90;;;;;;5013553;28;20030;-47
2023/08/17 02:48:49;;;;;;;16.23;11.45;;;18.20;99.90;;;;;;5013592;28;20288;-46
2023/08/17 02:51:15;;;;;;;12.02;9.95;;;18.20;99.90;;;;;;5013537;28;20026;-47
2023/08/17 02:53:41;;;;;;;14.55;12.82;;;18.10;99.90;;;;;;5013227;28;20030;-47
2023/08/17 02:56:06;;;;;;;15.50;12.43;;;18.10;99.90;;;;;;5013199;28;20017;-48
2023/08/17 02:58:32;;;;;;;14.93;13.27;;;18.10;99.90;;;;;;4995751;28;20025;-48
2023/08/17 03:00:57;;;;;;;19.15;14.65;;;18.10;99.90;;;;;;5013061;28;20087;-47
2023/08/17 03:03:23;;;;;;;17.67;15.20;;;18.10;99.90;;;;;;5013251;28;20060;-47
2023/08/17 03:05:48;;;;;;;16.52;14.32;;;18.10;99.90;;;;;;5012640;28;20345;-47
2023/08/17 03:08:14;;;;;;;19.38;14.57;;;18.10;99.90;;;;;;5013158;28;20075;-46
2023/08/17 03:10:39;;;;;;;20.20;15.60;;;18.10;99.90;;;;;;4995509;28;20034;-47
2023/08/17 03:13:05;;;;;;;18.27;14.63;;;18.20;99.90;;;;;;5012724;28;20025;-47
2023/08/17 03:15:58;;;;;;;20.80;15.77;;;18.10;99.90;;;;;;5012401;28;20037;-50
2023/08/17 03:18:24;;;;;;;17.00;13.85;;;18.10;99.90;;;;;;5013008;28;20022;-47
2023/08/17 03:20:49;;;;;;;19.42;16.00;;;18.10;99.90;;;;;;5012670;28;20052;-48
2023/08/17 03:23:15;;;;;;;20.88;18.35;;;18.10;99.90;;;;;;5012753;28;20033;-47
2023/08/17 03:25:40;;;;;;;17.00;15.18;;;18.10;99.90;;;;;;5012289;28;20298;-47
2023/08/17 03:28:06;;;;;;;16.60;14.60;;;18.10;99.90;;;;;;5012473;28;20026;-49
2023/08/17 03:30:31;;;;;;;18.45;16.33;;;18.00;99.90;;;;;;5012843;28;20034;-47
2023/08/17 03:32:57;;;;;;;21.65;17.13;;;18.10;99.90;;;;;;5012382;28;20078;-47
2023/08/17 03:35:22;;;;;;;24.23;18.58;;;18.00;99.90;;;;;;5012023;28;20041;-47
2023/08/17 03:37:48;;;;;;;21.92;17.20;;;18.00;99.90;;;;;;5011799;28;20108;-47
2023/08/17 03:40:13;;;;;;;21.63;19.17;;;18.00;99.90;;;;;;5012573;28;20026;-47
2023/08/17 03:42:39;;;;;;;25.65;18.85;;;18.00;99.90;;;;;;4994758;28;20022;-50
2023/08/17 03:45:05;;;;;;;21.95;17.23;;;17.90;99.90;;;;;;5011687;28;20109;-50
2023/08/17 03:47:31;;;;;;;21.85;17.42;;;18.00;99.90;;;;;;5012179;28;20038;-48
2023/08/17 03:49:56;;;;;;;27.25;19.70;;;18.00;99.90;;;;;;5012121;28;20072;-47
2023/08/17 03:52:22;;;;;;;22.05;17.73;;;17.90;99.90;;;;;;5012065;28;20034;-47
2023/08/17 03:54:47;;;;;;;29.23;20.90;;;17.90;99.90;;;;;;5011502;28;20296;-47
2023/08/17 03:57:13;;;;;;;32.65;21.58;;;17.90;99.90;;;;;;5012097;28;20101;-47
2023/08/17 03:59:38;;;;;;;22.35;19.30;;;17.80;99.90;;;;;;5012097;28;20447;-46
2023/08/17 04:02:04;;;;;;;43.38;25.63;;;17.80;99.90;;;;;;5011944;28;20054;-48
2023/08/17 04:04:29;;;;;;;26.92;21.13;;;17.80;99.90;;;;;;5011954;28;20037;-47
2023/08/17 04:06:55;;;;;;;35.53;23.70;;;17.80;99.90;;;;;;5011767;28;20077;-48
2023/08/17 04:09:20;;;;;;;27.55;21.05;;;17.90;99.90;;;;;;5012140;28;20038;-48
2023/08/17 04:11:46;;;;;;;44.28;29.83;;;17.90;99.90;;;;;;5011983;28;20083;-47
2023/08/17 04:14:12;;;;;;;34.03;23.35;;;17.90;99.90;;;;;;5011571;28;20014;-47
2023/08/17 04:16:37;;;;;;;32.00;22.58;;;17.80;99.90;;;;;;5011612;28;20060;-48
2023/08/17 04:19:03;;;;;;;37.42;25.50;;;17.80;99.90;;;;;;5011530;28;20026;-48
2023/08/17 04:21:29;;;;;;;34.45;24.33;;;17.80;99.90;;;;;;5011698;28;20028;-46
2023/08/17 04:23:54;;;;;;;32.90;23.60;;;17.80;99.90;;;;;;5011162;28;20022;-47
2023/08/17 04:26:20;;;;;;;30.67;23.00;;;17.80;99.90;;;;;;5011164;28;20030;-47
2023/08/17 04:28:46;;;;;;;26.55;21.08;;;17.80;99.90;;;;;;5011497;28;20092;-47
2023/08/17 04:31:11;;;;;;;29.92;23.05;;;17.80;99.90;;;;;;5003130;28;20485;-46
2023/08/17 04:33:37;;;;;;;29.02;22.63;;;17.80;99.90;;;;;;4993717;28;20036;-47
2023/08/17 04:36:02;;;;;;;29.52;23.55;;;17.80;99.90;;;;;;5010867;28;20396;-46
2023/08/17 04:38:28;;;;;;;24.13;20.42;;;17.80;99.90;;;;;;5011588;28;20018;-47
2023/08/17 04:40:53;;;;;;;29.20;21.65;;;17.80;99.90;;;;;;5011250;28;20072;-48
2023/08/17 04:43:19;;;;;;;28.40;21.75;;;17.80;99.90;;;;;;5011282;28;20022;-47
2023/08/17 04:45:47;;;;;;;27.35;20.30;;;17.80;99.90;;;;;;5010943;28;20037;-47
2023/08/17 04:48:13;;;;;;;25.77;20.33;;;17.80;99.90;;;;;;5011254;28;20018;-47
2023/08/17 04:50:39;;;;;;;27.55;21.73;;;17.80;99.90;;;;;;5011010;28;20261;-47
2023/08/17 04:53:04;;;;;;;25.17;20.90;;;17.80;99.90;;;;;;5010824;28;20036;-47
2023/08/17 04:55:31;;;;;;;27.55;20.83;;;17.70;99.90;;;;;;5010423;28;20540;-47
2023/08/17 04:57:57;;;;;;;24.38;20.60;;;17.80;99.90;;;;;;5010867;28;20020;-47
2023/08/17 05:00:27;;;;;;;28.02;20.63;;;17.70;99.90;;;;;;4993466;28;20026;-48
2023/08/17 05:02:54;;;;;;;23.13;20.00;;;17.70;99.90;;;;;;5010872;28;20014;-48
2023/08/17 05:05:20;;;;;;;24.80;20.10;;;17.80;99.90;;;;;;5010615;28;20260;-47
2023/08/17 05:07:45;;;;;;;29.27;22.58;;;17.70;99.90;;;;;;5011408;28;20101;-49
2023/08/17 05:10:11;;;;;;;25.00;20.67;;;17.80;99.90;;;;;;5011127;28;20025;-47
2023/08/17 05:12:36;;;;;;;26.00;21.65;;;17.70;99.90;;;;;;5010966;28;20041;-49
2023/08/17 05:15:02;;;;;;;25.83;20.88;;;17.70;99.90;;;;;;5010290;28;20033;-47
2023/08/17 05:17:27;;;;;;;20.95;18.75;;;17.80;99.90;;;;;;5011134;28;20034;-49
2023/08/17 05:19:53;;;;;;;20.95;17.65;;;17.70;99.90;;;;;;5010820;28;20022;-47
2023/08/17 05:22:19;;;;;;;28.75;21.30;;;17.80;99.90;;;;;;5010757;28;20057;-48
2023/08/17 05:24:45;;;;;;;25.90;20.90;;;17.80;99.90;;;;;;5010287;28;20038;-47
2023/08/17 05:27:11;;;;;;;21.85;19.48;;;17.80;99.90;;;;;;5010507;28;20032;-48
2023/08/17 05:29:37;;;;;;;23.58;20.52;;;17.80;99.90;;;;;;5010625;28;20037;-49
2023/08/17 05:32:02;;;;;;;21.17;18.98;;;17.80;99.90;;;;;;5010419;28;20373;-46
2023/08/17 05:34:28;;;;;;;23.13;20.13;;;17.80;99.90;;;;;;5010247;28;20026;-49
2023/08/17 05:36:54;;;;;;;21.88;19.55;;;17.80;99.90;;;;;;5010145;28;20022;-47
2023/08/17 05:39:19;;;;;;;22.80;20.23;;;17.80;99.90;;;;;;5010576;28;20026;-47
2023/08/17 05:41:45;;;;;;;33.30;22.80;;;17.70;99.90;;;;;;5010692;28;20029;-46
2023/08/17 05:44:10;;;;;;;30.08;22.45;;;17.70;99.90;;;;;;5010108;28;20037;-47
2023/08/17 05:46:36;;;;;;;23.10;20.30;;;17.70;99.90;;;;;;5010553;28;20041;-49
2023/08/17 05:49:02;;;;;;;27.67;22.02;;;17.70;99.90;;;;;;5010475;28;20517;-49
2023/08/17 05:51:28;;;;;;;23.42;19.63;;;17.70;99.90;;;;;;4993042;28;20080;-46
2023/08/17 05:53:54;;;;;;;25.90;20.80;;;17.70;99.90;;;;;;4992578;28;20481;-47
2023/08/17 05:56:19;;;;;;;33.15;21.75;;;17.70;99.90;;;;;;5010036;28;20037;-47
2023/08/17 05:58:45;;;;;;;26.38;20.60;;;17.70;99.90;;;;;;5010337;28;20026;-50
2023/08/17 06:01:11;;;;;;;30.77;21.85;;;17.60;99.90;;;;;;5010631;28;20041;-47
2023/08/17 06:03:37;;;;;;;26.90;21.70;;;17.60;99.90;;;;;;5014166;28;20025;-48
2023/08/17 06:06:03;;;;;;;23.27;19.70;;;17.60;99.90;;;;;;5013680;28;20500;-46
2023/08/17 06:08:29;;;;;;;27.95;20.10;;;17.70;99.90;;;;;;5014209;28;20033;-48
2023/08/17 06:10:55;;;;;;;20.98;18.67;;;17.70;99.90;;;;;;5014081;28;20105;-47
2023/08/17 06:13:21;;;;;;;26.33;21.27;;;17.70;99.90;;;;;;5014469;28;20145;-46
2023/08/17 06:15:46;;;;;;;30.92;22.67;;;17.70;99.90;;;;;;5013778;28;20515;-48
2023/08/17 06:18:12;;;;;;;27.73;19.88;;;17.70;99.90;;;;;;5014162;28;20033;-49
2023/08/17 06:20:37;;;;;;;22.63;18.52;;;17.60;99.90;;;;;;5014033;28;20026;-48
2023/08/17 06:23:03;;;;;;;26.23;20.35;;;17.60;99.90;;;;;;5013665;28;20560;-47
2023/08/17 06:25:29;;;;;;;28.13;20.25;;;17.60;99.90;;;;;;4995960;28;20034;-47
2023/08/17 06:27:54;;;;;;;23.38;18.20;;;17.60;99.90;;;;;;5013770;28;20088;-47
2023/08/17 06:30:20;;;;;;;27.52;19.52;;;17.50;99.90;;;;;;5013883;28;20312;-46
2023/08/17 06:32:45;;;;;;;28.02;19.48;;;17.50;99.90;;;;;;5013633;28;20560;-50
2023/08/17 06:35:11;;;;;;;27.23;18.73;;;17.40;99.90;;;;;;5013111;28;20080;-50
2023/08/17 06:37:36;;;;;;;28.27;19.35;;;17.40;99.90;;;;;;4996075;28;20487;-49
2023/08/17 06:40:07;;;;;;;23.23;19.52;;;17.40;99.90;;;;;;5013914;28;20057;-47
2023/08/17 06:42:32;;;;;;;25.27;19.70;;;17.40;99.90;;;;;;5013642;28;20113;-47
2023/08/17 06:44:58;;;;;;;26.42;19.60;;;17.40;99.90;;;;;;5013090;28;20109;-46
2023/08/17 06:47:23;;;;;;;35.13;23.50;;;17.40;99.90;;;;;;5013497;28;20030;-47
2023/08/17 06:49:49;;;;;;;24.45;20.23;;;17.40;99.90;;;;;;4995785;28;20456;-48
2023/08/17 06:52:14;;;;;;;33.15;21.35;;;17.40;99.90;;;;;;5013224;28;20026;-48
2023/08/17 06:54:40;;;;;;;28.45;22.08;;;17.50;99.90;;;;;;5013106;28;20038;-48
2023/08/17 06:57:05;;;;;;;26.40;20.80;;;17.50;99.90;;;;;;5012949;28;20054;-47
2023/08/17 06:59:33;;;;;;;22.95;18.35;;;17.50;99.90;;;;;;5013344;28;20033;-46
2023/08/17 07:01:58;;;;;;;29.00;21.92;;;17.50;99.90;;;;;;5013344;28;20018;-47
2023/08/17 07:04:24;;;;;;;26.48;21.55;;;17.40;99.90;;;;;;5013049;28;20026;-47
2023/08/17 07:06:50;;;;;;;34.83;24.17;;;17.50;99.90;;;;;;5012821;28;20485;-46
2023/08/17 07:09:16;;;;;;;30.40;22.98;;;17.40;99.90;;;;;;5012947;28;20054;-46
2023/08/17 07:11:41;;;;;;;29.77;23.38;;;17.40;99.90;;;;;;5013133;28;20060;-46
2023/08/17 07:14:07;;;;;;;25.88;21.42;;;17.40;99.90;;;;;;5011255;28;20390;-47
2023/08/17 07:16:32;;;;;;;25.35;22.55;;;17.40;99.90;;;;;;5012232;28;20034;-46
2023/08/17 07:18:58;;;;;;;29.80;24.05;;;17.40;99.90;;;;;;4995172;28;20014;-49
2023/08/17 07:21:24;;;;;;;27.42;22.38;;;17.40;99.90;;;;;;5012716;28;20030;-47
2023/08/17 07:23:51;;;;;;;31.23;23.42;;;17.40;99.90;;;;;;5012655;28;20040;-46
2023/08/17 07:26:18;;;;;;;36.97;25.45;;;17.40;99.90;;;;;;5012579;28;20195;-47
2023/08/17 07:28:44;;;;;;;35.97;24.67;;;17.40;99.90;;;;;;5012931;28;20022;-46
2023/08/17 07:31:10;;;;;;;34.33;24.70;;;17.40;99.90;;;;;;4995031;28;20034;-47
2023/08/17 07:33:35;;;;;;;30.75;21.73;;;17.40;99.90;;;;;;5012529;28;20030;-46
2023/08/17 07:36:01;;;;;;;30.00;23.75;;;17.50;99.90;;;;;;4994234;28;20050;-47
2023/08/17 07:38:26;;;;;;;31.80;23.60;;;17.50;99.90;;;;;;5012656;28;20057;-47
2023/08/17 07:40:52;;;;;;;43.28;27.08;;;17.50;99.90;;;;;;5012425;28;20026;-49
2023/08/17 07:43:17;;;;;;;48.70;27.95;;;17.50;99.90;;;;;;5012225;28;20063;-46
2023/08/17 07:45:43;;;;;;;36.67;23.58;;;17.50;99.90;;;;;;5012004;28;20409;-47
2023/08/17 07:48:08;;;;;;;32.63;24.15;;;17.50;99.90;;;;;;5012184;28;20034;-48
2023/08/17 07:50:34;;;;;;;32.05;24.23;;;17.40;99.90;;;;;;5012340;28;20032;-48
2023/08/17 07:53:00;;;;;;;46.72;28.13;;;17.40;99.90;;;;;;4994751;28;20025;-47
2023/08/17 07:55:26;;;;;;;33.60;25.08;;;17.40;99.90;;;;;;4994408;28;20021;-47
2023/08/17 07:57:52;;;;;;;40.72;28.33;;;17.50;99.90;;;;;;5012290;28;20022;-47
2023/08/17 08:00:18;;;;;;;41.38;29.20;;;17.50;99.90;;;;;;4994408;28;20067;-46
2023/08/17 08:02:43;;;;;;;53.72;31.83;;;17.50;99.90;;;;;;5011947;28;20049;-48
2023/08/17 08:05:09;;;;;;;50.20;31.20;;;17.50;99.90;;;;;;5011380;28;20490;-46
2023/08/17 08:07:34;;;;;;;32.42;26.42;;;17.50;99.90;;;;;;5011985;28;20029;-49
2023/08/17 08:10:00;;;;;;;46.97;30.38;;;17.60;99.90;;;;;;5011776;28;20169;-47
2023/08/17 08:12:25;;;;;;;48.95;30.90;;;17.60;99.90;;;;;;5011893;28;20022;-47
2023/08/17 08:14:51;;;;;;;39.42;28.27;;;17.60;99.90;;;;;;5011384;28;20293;-49
2023/08/17 08:17:16;;;;;;;36.60;27.15;;;17.60;99.90;;;;;;5011897;28;20242;-47
2023/08/17 08:19:42;;;;;;;44.40;29.80;;;17.50;99.90;;;;;;5011658;28;20073;-46
2023/08/17 08:22:07;;;;;;;42.15;27.75;;;17.60;99.90;;;;;;5011572;28;20323;-47
2023/08/17 08:24:34;;;;;;;39.38;26.15;;;17.50;99.90;;;;;;4993581;28;20616;-47
2023/08/17 08:27:01;;;;;;;33.28;22.75;;;17.50;99.90;;;;;;5011304;28;20095;-48
2023/08/17 08:29:27;;;;;;;33.55;25.17;;;17.40;99.90;;;;;;5011590;28;20030;-47
2023/08/17 08:31:53;;;;;;;43.45;28.73;;;17.50;99.90;;;;;;5011519;28;20171;-48
2023/08/17 08:34:18;;;;;;;30.60;23.85;;;17.40;99.90;;;;;;5011536;28;20049;-47
2023/08/17 08:36:44;;;;;;;34.05;24.88;;;17.50;99.90;;;;;;5011101;28;20060;-47
2023/08/17 08:39:10;;;;;;;36.53;23.23;;;17.50;99.90;;;;;;5011308;28;20045;-47
2023/08/17 08:41:37;;;;;;;30.27;22.83;;;17.40;99.90;;;;;;5011517;28;20017;-47
2023/08/17 08:44:03;;;;;;;34.80;22.73;;;17.50;99.90;;;;;;5011342;28;20381;-47
2023/08/17 08:46:30;;;;;;;32.60;24.45;;;17.50;99.90;;;;;;5011763;28;20028;-47
2023/08/17 08:48:56;;;;;;;41.53;24.55;;;17.50;99.90;;;;;;5011479;28;20112;-47
2023/08/17 08:51:28;;;;;;;28.33;19.92;;;17.50;99.90;;;;;;5011247;28;20472;-47
2023/08/17 08:54:02;;;;;;;25.38;20.00;;;17.50;99.90;;;;;;5010939;28;20042;-47
2023/08/17 08:56:30;;;;;;;22.02;18.20;;;17.50;99.90;;;;;;5010861;28;20053;-48
2023/08/17 08:58:55;;;;;;;24.48;17.95;;;17.50;99.90;;;;;;5011113;28;20048;-47
2023/08/17 09:01:21;;;;;;;24.38;17.50;;;17.50;99.90;;;;;;5010896;28;20054;-49
2023/08/17 09:03:48;;;;;;;19.40;14.63;;;17.50;99.90;;;;;;5010867;28;20022;-47
2023/08/17 09:06:14;;;;;;;24.42;15.20;;;17.40;99.90;;;;;;5010585;28;20532;-47
2023/08/17 09:08:41;;;;;;;22.45;14.57;;;17.30;99.90;;;;;;5010903;28;20536;-47
2023/08/17 09:11:06;;;;;;;19.75;15.23;;;17.30;99.90;;;;;;5010881;28;20132;-48
2023/08/17 09:13:32;;;;;;;19.83;14.43;;;17.30;99.90;;;;;;5010884;28;20098;-48
2023/08/17 09:16:00;;;;;;;21.55;15.20;;;17.30;99.90;;;;;;5010464;28;20022;-47
2023/08/17 09:18:26;;;;;;;23.25;15.60;;;17.30;99.90;;;;;;4993254;28;20018;-47
2023/08/17 09:20:52;;;;;;;22.88;16.08;;;17.30;99.90;;;;;;5011048;28;20025;-47
2023/08/17 09:23:21;;;;;;;19.15;14.73;;;17.30;99.90;;;;;;4993025;28;20053;-47
2023/08/17 09:25:49;;;;;;;15.25;13.55;;;17.30;99.90;;;;;;5010295;28;20018;-47
2023/08/17 09:28:19;;;;;;;16.58;12.52;;;17.30;99.90;;;;;;5011026;28;20022;-47
2023/08/17 09:30:54;;;;;;;14.88;12.05;;;17.30;99.90;;;;;;5010741;28;20026;-47
2023/08/17 09:33:25;;;;;;;16.65;12.32;;;17.20;99.90;;;;;;5010483;28;20030;-47
2023/08/17 09:35:51;;;;;;;15.43;12.55;;;17.30;99.90;;;;;;5009462;28;20033;-49
2023/08/17 09:38:18;;;;;;;15.43;13.02;;;17.30;99.90;;;;;;5010294;28;20061;-46
2023/08/17 09:40:43;;;;;;;15.00;10.75;;;17.30;99.90;;;;;;5010507;28;20084;-46
2023/08/17 09:43:09;;;;;;;15.35;10.07;;;17.10;99.90;;;;;;5010375;28;20424;-45
2023/08/17 09:45:39;;;;;;;11.77;10.07;;;17.10;99.90;;;;;;5010327;28;20048;-45
2023/08/17 09:48:07;;;;;;;15.32;10.52;;;17.00;99.90;;;;;;5010571;28;20073;-46
2023/08/17 09:50:32;;;;;;;14.80;10.63;;;16.90;99.90;;;;;;5010508;28;20042;-46
2023/08/17 09:52:58;;;;;;;11.65;9.23;;;16.90;99.90;;;;;;5010390;28;20063;-47
2023/08/17 09:55:24;;;;;;;13.02;8.98;;;16.80;99.90;;;;;;5009748;28;20465;-48
2023/08/17 09:57:51;;;;;;;10.32;8.63;;;16.80;99.90;;;;;;5000882;28;20072;-47
2023/08/17 10:00:17;;;;;;;13.70;9.38;;;16.90;99.90;;;;;;5010509;28;20028;-47
2023/08/17 10:02:44;;;;;;;10.27;9.18;;;16.80;99.90;;;;;;5010394;28;20366;-49
2023/08/17 10:05:12;;;;;;;12.93;9.00;;;16.80;99.90;;;;;;5009792;28;20319;-48
2023/08/17 10:07:41;;;;;;;12.88;9.27;;;16.80;99.90;;;;;;5010376;28;20022;-47
2023/08/17 10:10:08;;;;;;;9.70;7.80;;;16.80;99.90;;;;;;5010105;28;20358;-47
2023/08/17 10:12:44;;;;;;;15.55;8.32;;;16.80;99.90;;;;;;5010141;28;20014;-47
2023/08/17 10:15:12;;;;;;;10.65;8.43;;;16.80;99.90;;;;;;5009699;28;20030;-47
2023/08/17 10:17:49;;;;;;;12.38;8.65;;;16.70;99.90;;;;;;5010195;28;20540;-48
2023/08/17 10:20:16;;;;;;;21.05;8.93;;;16.70;99.90;;;;;;5010252;28;20556;-47
2023/08/17 10:22:54;;;;;;;12.40;7.95;;;16.70;99.90;;;;;;5010336;28;20053;-47
2023/08/17 10:25:21;;;;;;;14.85;8.95;;;16.60;99.90;;;;;;5009638;28;20056;-47
2023/08/17 10:27:48;;;;;;;14.43;8.57;;;16.70;99.90;;;;;;5010138;28;20112;-47
2023/08/17 10:30:14;;;;;;;15.73;9.57;;;16.60;99.90;;;;;;5009887;28;20029;-48
2023/08/17 10:32:44;;;;;;;14.63;9.57;;;16.70;99.90;;;;;;5010011;28;20045;-47
2023/08/17 10:35:11;;;;;;;13.18;9.65;;;16.70;99.90;;;;;;5009616;28;20563;-48
2023/08/17 10:37:38;;;;;;;15.60;8.95;;;16.70;99.90;;;;;;4992315;28;20107;-48
2023/08/17 10:40:04;;;;;;;15.18;8.75;;;16.70;99.90;;;;;;5010034;28;20018;-47
2023/08/17 10:42:32;;;;;;;10.05;8.23;;;16.70;99.90;;;;;;5001861;28;20022;-47
2023/08/17 10:44:58;;;;;;;12.00;7.50;;;16.70;99.90;;;;;;5009968;28;20014;-47
2023/08/17 10:47:28;;;;;;;10.25;8.00;;;16.80;99.90;;;;;;5010456;28;20022;-47
2023/08/17 10:49:59;;;;;;;16.13;8.43;;;16.80;99.90;;;;;;5014013;28;20044;-49
2023/08/17 10:52:37;;;;;;;13.68;7.97;;;16.80;99.90;;;;;;5013608;28;20038;-46
2023/08/17 10:55:05;;;;;;;11.02;7.78;;;16.90;99.90;;;;;;5013016;28;20034;-46
2023/08/17 10:57:36;;;;;;;11.48;8.20;;;16.90;99.90;;;;;;5013083;28;20029;-45
2023/08/17 11:00:15;;;;;;;16.40;9.45;;;17.00;99.90;;;;;;5013064;28;20022;-45
2023/08/17 11:02:44;;;;;;;12.82;7.85;;;17.00;99.90;;;;;;5012967;28;20539;-47
2023/08/17 11:05:13;;;;;;;11.88;7.90;;;16.90;99.90;;;;;;5012503;28;20037;-46
2023/08/17 11:07:43;;;;;;;9.30;7.35;;;16.80;99.90;;;;;;5012949;28;20477;-48
2023/08/17 11:10:18;;;;;;;13.20;8.18;;;16.80;99.90;;;;;;5012831;28;20397;-47
2023/08/17 11:12:44;;;;;;;13.60;9.95;;;16.90;99.90;;;;;;5012768;28;20026;-47
2023/08/17 11:15:10;;;;;;;11.75;8.52;;;17.00;99.90;;;;;;5012178;28;20026;-48
2023/08/17 11:17:35;;;;;;;19.58;10.13;;;17.10;99.90;;;;;;4995110;28;20026;-48
2023/08/17 11:20:01;;;;;;;14.20;8.35;;;17.20;99.90;;;;;;5012820;28;20113;-48
2023/08/17 11:22:28;;;;;;;15.13;8.70;;;17.20;99.90;;;;;;4995109;28;20108;-47
2023/08/17 11:24:53;;;;;;;17.83;9.45;;;17.30;99.90;;;;;;5013133;28;20497;-47
2023/08/17 11:27:20;;;;;;;11.05;8.75;;;17.30;99.90;;;;;;4995481;28;20125;-49
2023/08/17 11:29:45;;;;;;;12.60;8.68;;;17.50;99.90;;;;;;5012919;28;20041;-47
2023/08/17 11:32:12;;;;;;;15.43;8.93;;;17.50;99.90;;;;;;4994854;28;20069;-47
2023/08/17 11:34:38;;;;;;;9.55;8.15;;;17.60;99.90;;;;;;5012433;28;20014;-47
2023/08/17 11:37:04;;;;;;;12.30;8.20;;;17.60;99.90;;;;;;5012377;28;20453;-47
2023/08/17 11:39:33;;;;;;;12.10;8.15;;;17.70;99.90;;;;;;5012370;28;20029;-47
2023/08/17 11:42:00;;;;;;;12.05;8.35;;;17.70;99.90;;;;;;5012676;28;20021;-48
2023/08/17 11:44:25;;;;;;;10.75;8.45;;;17.80;99.90;;;;;;5012149;28;20022;-47
2023/08/17 11:46:51;;;;;;;15.32;9.65;;;17.90;99.90;;;;;;5012252;28;20026;-47
2023/08/17 11:49:17;;;;;;;10.77;8.60;;;17.90;99.90;;;;;;5012187;28;20058;-47
2023/08/17 11:51:43;;;;;;;9.85;8.25;;;18.00;99.90;;;;;;5012344;28;20018;-46
2023/08/17 11:54:08;;;;;;;17.73;8.68;;;18.00;99.90;;;;;;5011517;28;20072;-47
2023/08/17 11:56:34;;;;;;;13.07;8.48;;;18.10;99.90;;;;;;4993960;28;20398;-48
2023/08/17 11:59:11;;;;;;;10.02;8.45;;;18.10;99.90;;;;;;5011134;28;20071;-46
2023/08/17 12:01:36;;;;;;;13.13;8.88;;;18.30;99.90;;;;;;5011997;28;20399;-48
2023/08/17 12:04:04;;;;;;;9.98;8.38;;;18.30;99.90;;;;;;5011598;28;20014;-46
2023/08/17 12:06:30;;;;;;;8.48;7.60;;;18.30;99.90;;;;;;5011516;28;20401;-46
2023/08/17 12:08:56;;;;;;;9.32;7.47;;;18.40;99.90;;;;;;5012223;28;20109;-49
2023/08/17 12:11:24;;;;;;;11.02;7.85;;;18.40;99.90;;;;;;4994442;28;20160;-47
2023/08/17 12:13:51;;;;;;;15.27;8.52;;;18.50;99.90;;;;;;5011552;28;20068;-47
2023/08/17 12:16:18;;;;;;;9.15;7.88;;;18.50;99.90;;;;;;5011073;28;20034;-46
2023/08/17 12:18:48;;;;;;;14.20;7.95;;;18.60;99.90;;;;;;5011788;28;20026;-46
2023/08/17 12:21:13;;;;;;;8.33;6.80;;;18.60;99.90;;;;;;5011518;28;20026;-46
2023/08/17 12:23:39;;;;;;;12.60;7.90;;;18.70;99.90;;;;;;5011733;28;20076;-47
2023/08/17 12:26:04;;;;;;;9.02;5.90;;;18.70;99.90;;;;;;5019326;28;20101;-46
2023/08/17 12:28:30;;;;;;;10.30;6.70;;;18.80;99.90;;;;;;5011522;28;20481;-45
2023/08/17 12:31:03;;;;;;;5.38;4.88;;;18.80;99.90;;;;;;5018014;28;20097;-47